Time;durP1;ratioP1;P1;durP2;ratioP2;P2;SDS_P1;SDS_P2;PMS_P1;PMS_P2;Temp;Humidity;BMP_temperature;BMP_pressure;BME280_temperature;BME280_humidity;BME280_pressure;Samples;Min_cycle;Max_cycle;Signal;HPM_P1;HPM_P2
2022/09/06 00:00:34;;;;;;;6.93;4.32;;;;;;;;;;10484970;28;20045;-75
2022/09/06 00:05:37;;;;;;;6.78;4.13;;;;;;;;;;10478624;28;20045;-75
2022/09/06 00:10:42;;;;;;;9.07;4.70;;;;;;;;;;10484967;28;20049;-75
2022/09/06 00:15:45;;;;;;;6.93;4.28;;;;;;;;;;10489801;28;20079;-76
2022/09/06 00:20:49;;;;;;;7.78;4.50;;;;;;;;;;10488555;28;20593;-75
2022/09/06 00:25:53;;;;;;;6.90;3.97;;;;;;;;;;10491252;28;20131;-74
2022/09/06 00:30:56;;;;;;;9.27;4.47;;;;;;;;;;10467894;28;20401;-74
2022/09/06 00:36:00;;;;;;;8.52;4.60;;;;;;;;;;10483696;28;20485;-74
2022/09/06 00:41:05;;;;;;;8.43;4.43;;;;;;;;;;10483357;28;20370;-75
2022/09/06 00:46:09;;;;;;;7.55;3.97;;;;;;;;;;10467140;28;20048;-74
2022/09/06 00:51:13;;;;;;;8.68;4.38;;;;;;;;;;10462948;28;20041;-74
2022/09/06 00:56:18;;;;;;;7.65;4.18;;;;;;;;;;10482323;28;20056;-75
2022/09/06 01:01:21;;;;;;;7.43;4.25;;;;;;;;;;10463064;28;20082;-74
2022/09/06 01:06:26;;;;;;;7.38;3.83;;;;;;;;;;10471712;28;20476;-74
2022/09/06 01:11:38;;;;;;;7.38;4.10;;;;;;;;;;10479106;28;20396;-73
2022/09/06 01:16:45;;;;;;;10.18;4.47;;;;;;;;;;10483078;28;20044;-75
2022/09/06 01:21:54;;;;;;;10.15;4.63;;;;;;;;;;10484998;28;20131;-72
2022/09/06 01:27:12;;;;;;;8.50;4.20;;;;;;;;;;10473031;28;20401;-75
2022/09/06 01:32:20;;;;;;;8.10;4.07;;;;;;;;;;10491452;28;20410;-75
2022/09/06 01:37:24;;;;;;;6.68;4.03;;;;;;;;;;10465352;28;20044;-74
2022/09/06 01:42:28;;;;;;;9.75;4.10;;;;;;;;;;10477037;28;20062;-74
2022/09/06 01:47:38;;;;;;;6.78;3.97;;;;;;;;;;10480789;28;20036;-74
2022/09/06 01:52:46;;;;;;;8.35;4.28;;;;;;;;;;10480326;28;20040;-74
2022/09/06 01:58:09;;;;;;;7.90;4.13;;;;;;;;;;10466564;28;20083;-74
2022/09/06 02:03:18;;;;;;;7.03;4.35;;;;;;;;;;10465751;28;20052;-74
2022/09/06 02:08:23;;;;;;;6.40;4.00;;;;;;;;;;10468264;28;20032;-74
2022/09/06 02:13:30;;;;;;;8.35;4.30;;;;;;;;;;10463332;28;20048;-74
2022/09/06 02:18:37;;;;;;;6.38;4.18;;;;;;;;;;10469939;28;20033;-75
2022/09/06 02:23:43;;;;;;;7.70;4.22;;;;;;;;;;10478466;28;20048;-74
2022/09/06 02:28:46;;;;;;;6.18;3.63;;;;;;;;;;10481282;28;20356;-74
2022/09/06 02:33:50;;;;;;;7.90;4.50;;;;;;;;;;10478370;28;20276;-74
2022/09/06 02:38:54;;;;;;;8.43;4.05;;;;;;;;;;10463722;28;20033;-73
2022/09/06 02:43:57;;;;;;;7.65;4.18;;;;;;;;;;10466838;28;20052;-73
2022/09/06 02:49:02;;;;;;;7.93;4.38;;;;;;;;;;10464942;28;20043;-74
2022/09/06 02:54:06;;;;;;;9.00;4.07;;;;;;;;;;10479135;28;20046;-75
2022/09/06 02:59:09;;;;;;;9.23;4.53;;;;;;;;;;10466345;28;20482;-75
2022/09/06 03:04:14;;;;;;;8.27;3.85;;;;;;;;;;10485509;28;20068;-74
2022/09/06 03:09:17;;;;;;;7.13;3.90;;;;;;;;;;10473211;28;20451;-75
2022/09/06 03:14:20;;;;;;;6.63;3.50;;;;;;;;;;10468924;28;20037;-73
2022/09/06 03:19:27;;;;;;;7.95;3.90;;;;;;;;;;10490033;28;20059;-75
2022/09/06 03:24:39;;;;;;;6.07;3.50;;;;;;;;;;10492066;28;20049;-74
2022/09/06 03:29:42;;;;;;;6.63;3.60;;;;;;;;;;10482615;28;20072;-74
2022/09/06 03:34:46;;;;;;;8.17;3.97;;;;;;;;;;10469047;28;20083;-74
2022/09/06 03:39:49;;;;;;;6.20;3.53;;;;;;;;;;10491005;28;20043;-74
2022/09/06 03:44:53;;;;;;;;;;;;;;;;;;10487466;28;20048;-73
2022/09/06 03:49:57;;;;;;;6.07;4.00;;;;;;;;;;10489486;28;20023;-74
2022/09/06 03:55:01;;;;;;;6.07;3.83;;;;;;;;;;10487082;28;20041;-74
2022/09/06 04:00:04;;;;;;;;;;;;;;;;;;10468149;28;20037;-74
2022/09/06 04:05:11;;;;;;;7.38;3.97;;;;;;;;;;10483350;28;19978;-73
2022/09/06 04:10:18;;;;;;;7.05;3.75;;;;;;;;;;10485184;28;20043;-74
2022/09/06 04:15:21;;;;;;;5.68;3.80;;;;;;;;;;10481981;28;20159;-73
2022/09/06 04:20:26;;;;;;;6.10;3.70;;;;;;;;;;10468797;28;20029;-73
2022/09/06 04:25:30;;;;;;;6.72;3.72;;;;;;;;;;10490303;28;20044;-74
2022/09/06 04:30:33;;;;;;;8.25;4.10;;;;;;;;;;10492525;28;20213;-74
2022/09/06 04:35:36;;;;;;;;;;;;;;;;;;10490486;28;20040;-73
2022/09/06 04:40:40;;;;;;;;;;;;;;;;;;10472203;28;20000;-73
2022/09/06 04:45:45;;;;;;;7.97;3.50;;;;;;;;;;10471071;28;19920;-74
2022/09/06 04:50:49;;;;;;;8.57;3.95;;;;;;;;;;10486190;28;20040;-76
2022/09/06 04:55:52;;;;;;;8.55;3.97;;;;;;;;;;10466868;28;20095;-74
2022/09/06 05:00:56;;;;;;;7.72;3.50;;;;;;;;;;10485026;28;20568;-74
2022/09/06 05:06:07;;;;;;;3.97;2.13;;;;;;;;;;10482576;28;20052;-74
2022/09/06 05:11:11;;;;;;;6.30;3.70;;;;;;;;;;10485478;28;20051;-73
2022/09/06 05:16:16;;;;;;;6.95;3.83;;;;;;;;;;10483201;28;20131;-75
2022/09/06 05:21:20;;;;;;;9.15;4.60;;;;;;;;;;10480382;28;20560;-75
2022/09/06 05:26:23;;;;;;;7.03;3.40;;;;;;;;;;10484280;28;20037;-74
2022/09/06 05:31:28;;;;;;;9.77;4.13;;;;;;;;;;10469407;28;20072;-75
2022/09/06 05:36:31;;;;;;;9.35;3.85;;;;;;;;;;10485241;28;20142;-75
2022/09/06 05:41:34;;;;;;;;;;;;;;;;;;10468729;28;20056;-74
2022/09/06 05:46:44;;;;;;;8.85;3.90;;;;;;;;;;10469061;28;20099;-75
2022/09/06 05:51:50;;;;;;;8.75;4.05;;;;;;;;;;10479949;28;20060;-75
2022/09/06 05:56:52;;;;;;;7.13;3.47;;;;;;;;;;10483360;28;20124;-74
2022/09/06 06:02:04;;;;;;;7.03;3.55;;;;;;;;;;10481936;28;20037;-75
2022/09/06 06:07:09;;;;;;;4.07;2.13;;;;;;;;;;10476196;28;20071;-75
2022/09/06 06:12:12;;;;;;;6.07;3.90;;;;;;;;;;10479139;28;20049;-75
2022/09/06 06:17:16;;;;;;;6.25;3.42;;;;;;;;;;10477473;28;20400;-74
2022/09/06 06:22:19;;;;;;;7.72;3.10;;;;;;;;;;10486414;28;20071;-74
2022/09/06 06:27:21;;;;;;;7.28;3.60;;;;;;;;;;10479262;28;20490;-74
2022/09/06 06:32:26;;;;;;;6.03;3.20;;;;;;;;;;10466987;28;20567;-75
2022/09/06 06:37:28;;;;;;;8.25;3.42;;;;;;;;;;10491079;28;20695;-75
2022/09/06 06:42:31;;;;;;;7.32;3.50;;;;;;;;;;10492385;28;20096;-75
2022/09/06 06:47:36;;;;;;;8.57;3.33;;;;;;;;;;10484887;28;20032;-75
2022/09/06 06:52:40;;;;;;;6.13;3.30;;;;;;;;;;10487643;28;20279;-75
2022/09/06 06:57:43;;;;;;;6.30;3.03;;;;;;;;;;10486615;28;20060;-75
2022/09/06 07:02:47;;;;;;;5.93;3.08;;;;;;;;;;10489587;28;20036;-75
2022/09/06 07:07:50;;;;;;;7.35;3.10;;;;;;;;;;10484815;28;20069;-75
2022/09/06 07:12:53;;;;;;;6.50;2.35;;;;;;;;;;10484042;28;20074;-75
2022/09/06 07:17:57;;;;;;;5.57;2.72;;;;;;;;;;10487217;28;20058;-76
2022/09/06 07:23:00;;;;;;;7.15;2.53;;;;;;;;;;10486030;28;20072;-75
2022/09/06 07:28:23;;;;;;;;;;;;;;;;;;10487036;28;20045;-76
2022/09/06 07:33:27;;;;;;;3.35;1.75;;;;;;;;;;10488115;28;20450;-75
2022/09/06 07:38:30;;;;;;;2.42;1.75;;;;;;;;;;10493050;28;20973;-75
2022/09/06 07:43:35;;;;;;;3.05;1.65;;;;;;;;;;10485602;28;20141;-76
2022/09/06 07:48:40;;;;;;;5.13;1.88;;;;;;;;;;10482716;28;20044;-74
2022/09/06 07:53:44;;;;;;;5.53;1.98;;;;;;;;;;10486431;28;20058;-74
2022/09/06 07:58:47;;;;;;;2.08;1.50;;;;;;;;;;10481384;28;20076;-74
2022/09/06 08:03:51;;;;;;;4.18;2.00;;;;;;;;;;10486615;28;20055;-74
2022/09/06 08:08:54;;;;;;;7.80;1.90;;;;;;;;;;10483003;28;20424;-74
2022/09/06 08:13:59;;;;;;;7.40;2.10;;;;;;;;;;10485569;28;20080;-74
2022/09/06 08:19:04;;;;;;;4.28;1.90;;;;;;;;;;10486088;28;20042;-74
2022/09/06 08:24:08;;;;;;;2.83;1.80;;;;;;;;;;10478045;28;20040;-74
2022/09/06 08:29:12;;;;;;;1.92;1.30;;;;;;;;;;10470289;28;20033;-74
2022/09/06 08:34:16;;;;;;;3.90;1.63;;;;;;;;;;10479520;28;20044;-74
2022/09/06 08:39:19;;;;;;;3.90;1.90;;;;;;;;;;10477426;28;20365;-74
2022/09/06 08:44:21;;;;;;;;;;;;;;;;;;10481596;28;20040;-75
2022/09/06 08:49:46;;;;;;;4.93;1.80;;;;;;;;;;10479859;28;19935;-74
2022/09/06 08:54:53;;;;;;;1.63;1.05;;;;;;;;;;10478317;28;20179;-74
2022/09/06 08:59:59;;;;;;;3.83;1.60;;;;;;;;;;10483486;28;20118;-74
2022/09/06 09:05:06;;;;;;;1.67;1.00;;;;;;;;;;10479869;28;20119;-73
2022/09/06 09:10:12;;;;;;;2.90;1.08;;;;;;;;;;10471390;28;20043;-74
2022/09/06 09:15:16;;;;;;;2.78;1.40;;;;;;;;;;10478384;28;20501;-74
2022/09/06 09:20:21;;;;;;;2.05;1.23;;;;;;;;;;10483042;28;20036;-74
2022/09/06 09:25:24;;;;;;;2.45;1.48;;;;;;;;;;10465419;28;20040;-74
2022/09/06 09:30:27;;;;;;;4.25;1.80;;;;;;;;;;10479249;28;20082;-74
2022/09/06 09:35:51;;;;;;;2.50;1.40;;;;;;;;;;10483937;28;20049;-75
2022/09/06 09:40:55;;;;;;;4.10;1.80;;;;;;;;;;10478659;28;20048;-75
2022/09/06 09:46:12;;;;;;;4.45;1.95;;;;;;;;;;10481175;28;20044;-76
2022/09/06 09:51:20;;;;;;;2.50;1.67;;;;;;;;;;10478258;28;20489;-74
2022/09/06 09:56:33;;;;;;;2.65;1.85;;;;;;;;;;10459839;28;20448;-74
2022/09/06 10:01:38;;;;;;;1.60;1.50;;;;;;;;;;10476038;28;20043;-73
2022/09/06 10:06:42;;;;;;;2.08;1.60;;;;;;;;;;10476666;28;20084;-74
2022/09/06 10:12:05;;;;;;;3.08;1.80;;;;;;;;;;10475435;28;20044;-74
2022/09/06 10:17:08;;;;;;;2.33;1.85;;;;;;;;;;10479414;28;20040;-74
2022/09/06 10:22:20;;;;;;;1.63;1.50;;;;;;;;;;10479963;28;20466;-75
2022/09/06 10:27:25;;;;;;;2.22;1.70;;;;;;;;;;10481211;28;20044;-73
2022/09/06 10:32:35;;;;;;;3.65;1.70;;;;;;;;;;10483693;28;20434;-75
2022/09/06 10:37:45;;;;;;;2.88;2.10;;;;;;;;;;10480638;28;20049;-74
2022/09/06 10:42:48;;;;;;;2.75;1.75;;;;;;;;;;10483263;28;20078;-75
2022/09/06 10:47:55;;;;;;;3.30;2.00;;;;;;;;;;10480431;28;20040;-74
2022/09/06 10:53:04;;;;;;;3.35;1.95;;;;;;;;;;10473022;28;20095;-75
2022/09/06 10:58:10;;;;;;;3.28;2.03;;;;;;;;;;10479862;28;20131;-75
2022/09/06 11:03:19;;;;;;;4.03;2.20;;;;;;;;;;10476186;28;20067;-75
2022/09/06 11:08:47;;;;;;;1.85;1.70;;;;;;;;;;10477279;28;20359;-75
2022/09/06 11:13:51;;;;;;;;;;;;;;;;;;10472585;28;20051;-75
2022/09/06 11:18:56;;;;;;;2.90;1.90;;;;;;;;;;10478687;28;19920;-74
2022/09/06 11:24:06;;;;;;;6.30;2.40;;;;;;;;;;10482940;28;20048;-75
2022/09/06 11:29:10;;;;;;;3.08;1.70;;;;;;;;;;10488347;28;20048;-75
2022/09/06 11:34:22;;;;;;;4.50;2.17;;;;;;;;;;10487838;28;20075;-75
2022/09/06 11:39:27;;;;;;;2.45;1.83;;;;;;;;;;10464807;28;20078;-74
2022/09/06 11:44:51;;;;;;;6.18;2.50;;;;;;;;;;10478278;28;20046;-74
2022/09/06 11:49:54;;;;;;;5.43;2.28;;;;;;;;;;10488864;28;20040;-75
2022/09/06 11:54:58;;;;;;;4.40;2.47;;;;;;;;;;10485567;28;20043;-75
2022/09/06 12:00:05;;;;;;;5.57;2.58;;;;;;;;;;10485456;28;21657;-75
2022/09/06 12:05:19;;;;;;;7.07;2.50;;;;;;;;;;10487979;28;20376;-74
2022/09/06 12:10:45;;;;;;;5.45;2.50;;;;;;;;;;10480341;28;20045;-75
2022/09/06 12:15:52;;;;;;;3.80;2.30;;;;;;;;;;10479365;28;20131;-75
2022/09/06 12:21:01;;;;;;;7.15;2.38;;;;;;;;;;10476078;28;20102;-74
2022/09/06 12:26:06;;;;;;;13.32;2.22;;;;;;;;;;10481728;28;20048;-74
2022/09/06 12:31:24;;;;;;;10.90;2.80;;;;;;;;;;10480689;28;20044;-74
2022/09/06 12:36:30;;;;;;;8.30;2.50;;;;;;;;;;10478151;28;20045;-75
2022/09/06 12:41:36;;;;;;;6.35;2.55;;;;;;;;;;10474098;28;20099;-74
2022/09/06 12:46:47;;;;;;;9.25;2.50;;;;;;;;;;10479906;28;20041;-74
2022/09/06 12:51:50;;;;;;;6.75;2.67;;;;;;;;;;10483206;28;20086;-74
2022/09/06 12:57:10;;;;;;;10.65;2.65;;;;;;;;;;10484982;28;20036;-74
2022/09/06 13:02:16;;;;;;;8.25;2.53;;;;;;;;;;10484526;28;20123;-74
2022/09/06 13:07:21;;;;;;;9.20;2.65;;;;;;;;;;10481832;28;20048;-74
2022/09/06 13:12:26;;;;;;;7.30;2.60;;;;;;;;;;10465543;28;20036;-74
2022/09/06 13:17:36;;;;;;;8.80;1.95;;;;;;;;;;10483912;28;20072;-74
2022/09/06 13:22:40;;;;;;;8.15;2.50;;;;;;;;;;10481498;28;20489;-74
2022/09/06 13:27:48;;;;;;;10.35;2.05;;;;;;;;;;10487883;28;20123;-74
2022/09/06 13:32:51;;;;;;;9.32;2.05;;;;;;;;;;10483766;28;20167;-74
2022/09/06 13:38:14;;;;;;;6.97;2.30;;;;;;;;;;10481725;28;20093;-74
2022/09/06 13:43:23;;;;;;;11.18;2.50;;;;;;;;;;10479062;28;20112;-75
2022/09/06 13:48:26;;;;;;;9.00;2.30;;;;;;;;;;10485099;28;20075;-74
2022/09/06 13:53:31;;;;;;;10.27;2.33;;;;;;;;;;10483042;28;20045;-74
2022/09/06 13:58:35;;;;;;;10.00;2.70;;;;;;;;;;10487535;28;20486;-74
2022/09/06 14:03:45;;;;;;;9.07;2.17;;;;;;;;;;10483956;28;20479;-74
2022/09/06 14:08:48;;;;;;;7.22;2.45;;;;;;;;;;10479985;28;20135;-74
2022/09/06 14:14:11;;;;;;;9.75;2.17;;;;;;;;;;10481948;28;20521;-74
2022/09/06 14:19:14;;;;;;;6.85;1.92;;;;;;;;;;10479419;28;20064;-74
2022/09/06 14:24:17;;;;;;;5.00;1.88;;;;;;;;;;10477134;28;20336;-74
2022/09/06 14:29:22;;;;;;;5.72;1.80;;;;;;;;;;10478178;28;20047;-74
2022/09/06 14:34:25;;;;;;;9.43;2.40;;;;;;;;;;10463784;28;20436;-73
2022/09/06 14:39:27;;;;;;;6.15;1.98;;;;;;;;;;10478806;28;20121;-73
2022/09/06 14:44:32;;;;;;;7.63;2.53;;;;;;;;;;10479609;28;20041;-73
2022/09/06 14:49:34;;;;;;;6.43;2.45;;;;;;;;;;10481695;28;20128;-74
2022/09/06 14:54:37;;;;;;;10.10;2.75;;;;;;;;;;10481168;28;20036;-75
2022/09/06 14:59:41;;;;;;;7.47;2.78;;;;;;;;;;10488385;28;20117;-73
2022/09/06 15:04:44;;;;;;;6.95;2.33;;;;;;;;;;10487920;28;20516;-74
2022/09/06 15:09:49;;;;;;;9.32;2.92;;;;;;;;;;10490750;28;20123;-74
2022/09/06 15:14:53;;;;;;;7.78;2.22;;;;;;;;;;10484292;28;20075;-73
2022/09/06 15:19:57;;;;;;;14.60;2.83;;;;;;;;;;10489379;28;20051;-73
2022/09/06 15:25:00;;;;;;;7.40;2.35;;;;;;;;;;10468372;28;20121;-74
2022/09/06 15:30:04;;;;;;;8.55;2.38;;;;;;;;;;10488008;28;20646;-74
2022/09/06 15:35:07;;;;;;;12.55;2.67;;;;;;;;;;10482958;28;20105;-74
2022/09/06 15:40:11;;;;;;;11.15;2.60;;;;;;;;;;10489377;28;20711;-74
2022/09/06 15:45:16;;;;;;;6.18;2.50;;;;;;;;;;10488083;28;20478;-74
2022/09/06 15:50:19;;;;;;;8.23;2.58;;;;;;;;;;10490422;28;20066;-74
2022/09/06 15:55:57;;;;;;;9.73;2.55;;;;;;;;;;10486754;28;20401;-75
2022/09/06 16:01:06;;;;;;;6.25;2.38;;;;;;;;;;10484388;28;20033;-75
2022/09/06 16:06:10;;;;;;;6.85;2.38;;;;;;;;;;10482989;28;20453;-74
2022/09/06 16:11:31;;;;;;;7.28;2.00;;;;;;;;;;10486220;28;20124;-73
2022/09/06 16:16:35;;;;;;;6.93;2.22;;;;;;;;;;10484060;28;20057;-73
2022/09/06 16:21:39;;;;;;;5.88;2.03;;;;;;;;;;10482331;28;20403;-74
2022/09/06 16:26:43;;;;;;;5.50;2.10;;;;;;;;;;10484689;28;20052;-73
2022/09/06 16:31:47;;;;;;;8.98;2.10;;;;;;;;;;10485532;28;20263;-74
2022/09/06 16:36:50;;;;;;;9.93;2.10;;;;;;;;;;10488224;28;20058;-74
2022/09/06 16:41:53;;;;;;;11.60;2.25;;;;;;;;;;10484208;28;20072;-73
2022/09/06 16:46:59;;;;;;;5.47;1.92;;;;;;;;;;10481907;28;20496;-74
2022/09/06 16:52:03;;;;;;;5.22;1.90;;;;;;;;;;10482249;28;20106;-73
2022/09/06 16:57:06;;;;;;;7.90;3.00;;;;;;;;;;10479403;28;20119;-73
2022/09/06 17:02:11;;;;;;;14.93;3.15;;;;;;;;;;10483684;28;20068;-73
2022/09/06 17:07:14;;;;;;;6.53;2.60;;;;;;;;;;10481159;28;20426;-73
2022/09/06 17:12:17;;;;;;;7.30;2.78;;;;;;;;;;10480405;28;20335;-76
2022/09/06 17:17:21;;;;;;;7.82;2.90;;;;;;;;;;10482588;28;20040;-74
2022/09/06 17:22:24;;;;;;;10.40;2.83;;;;;;;;;;10486110;28;20539;-74
2022/09/06 17:27:27;;;;;;;15.95;6.75;;;;;;;;;;10485874;28;20451;-73
2022/09/06 17:32:32;;;;;;;7.25;3.25;;;;;;;;;;10490596;28;20045;-73
2022/09/06 17:37:35;;;;;;;9.30;3.30;;;;;;;;;;10469128;28;20040;-76
2022/09/06 17:42:41;;;;;;;12.95;4.30;;;;;;;;;;10470021;28;20033;-73
2022/09/06 17:47:45;;;;;;;15.48;5.30;;;;;;;;;;10484344;28;20037;-74
2022/09/06 17:52:50;;;;;;;7.55;3.10;;;;;;;;;;10481258;28;20067;-74
2022/09/06 17:57:55;;;;;;;13.27;4.20;;;;;;;;;;10485496;28;20036;-75
2022/09/06 18:02:59;;;;;;;12.15;5.38;;;;;;;;;;10483371;28;20044;-75
2022/09/06 18:08:03;;;;;;;10.35;4.50;;;;;;;;;;10478293;28;20427;-74
2022/09/06 18:13:06;;;;;;;12.30;4.50;;;;;;;;;;10480121;28;20132;-74
2022/09/06 18:18:11;;;;;;;10.20;4.25;;;;;;;;;;10481184;28;20056;-74
2022/09/06 18:23:14;;;;;;;10.13;4.70;;;;;;;;;;10477101;28;20025;-74
2022/09/06 18:28:17;;;;;;;14.32;6.65;;;;;;;;;;10481971;28;20410;-75
2022/09/06 18:33:24;;;;;;;18.05;7.65;;;;;;;;;;10474326;28;20271;-75
2022/09/06 18:38:27;;;;;;;17.50;6.97;;;;;;;;;;10483064;28;20465;-75
2022/09/06 18:43:31;;;;;;;11.00;5.05;;;;;;;;;;10480739;28;20098;-73
2022/09/06 18:48:36;;;;;;;8.25;4.13;;;;;;;;;;10463526;28;20289;-72
2022/09/06 18:53:39;;;;;;;8.40;4.03;;;;;;;;;;10478755;28;20489;-74
2022/09/06 18:58:46;;;;;;;71.47;16.75;;;;;;;;;;10485085;28;20450;-74
2022/09/06 19:03:50;;;;;;;12.10;5.07;;;;;;;;;;10469190;28;20091;-73
2022/09/06 19:08:54;;;;;;;11.77;5.40;;;;;;;;;;10481872;28;20036;-73
2022/09/06 19:13:57;;;;;;;11.82;4.00;;;;;;;;;;10484289;28;20033;-73
2022/09/06 19:18:59;;;;;;;;;;;;;;;;;;10485235;28;20036;-74
2022/09/06 19:24:04;;;;;;;13.80;4.97;;;;;;;;;;10481901;28;19950;-74
2022/09/06 19:29:08;;;;;;;9.45;4.60;;;;;;;;;;10480562;28;20552;-74
2022/09/06 19:34:14;;;;;;;6.82;3.28;;;;;;;;;;10483813;28;20044;-73
2022/09/06 19:39:20;;;;;;;10.57;3.65;;;;;;;;;;10481594;28;20509;-74
2022/09/06 19:44:27;;;;;;;9.88;3.60;;;;;;;;;;10482796;28;20040;-74
2022/09/06 19:49:30;;;;;;;7.25;2.92;;;;;;;;;;10493076;28;20041;-74
2022/09/06 19:54:35;;;;;;;9.35;3.50;;;;;;;;;;10486299;28;20102;-74
2022/09/06 19:59:48;;;;;;;9.10;3.08;;;;;;;;;;10488522;28;20094;-74
2022/09/06 20:04:51;;;;;;;8.43;3.38;;;;;;;;;;10483428;28;20074;-77
2022/09/06 20:09:55;;;;;;;8.50;3.60;;;;;;;;;;10490991;28;20052;-75
2022/09/06 20:14:59;;;;;;;11.20;3.83;;;;;;;;;;10489249;28;20044;-75
2022/09/06 20:20:02;;;;;;;10.07;3.40;;;;;;;;;;10487263;28;20492;-75
2022/09/06 20:25:08;;;;;;;11.13;3.85;;;;;;;;;;10484712;28;20075;-76
2022/09/06 20:30:12;;;;;;;12.15;3.92;;;;;;;;;;10487034;28;20280;-76
2022/09/06 20:35:15;;;;;;;5.00;2.70;;;;;;;;;;10487699;28;20123;-77
2022/09/06 20:40:17;;;;;;;;;;;;;;;;;;10488280;28;20147;-75
2022/09/06 20:45:24;;;;;;;5.03;2.33;;;;;;;;;;10484859;28;19920;-75
2022/09/06 20:50:27;;;;;;;5.30;2.70;;;;;;;;;;10484910;28;20249;-76
2022/09/06 20:55:30;;;;;;;8.00;3.10;;;;;;;;;;10480965;28;20036;-75
2022/09/06 21:00:34;;;;;;;4.43;2.70;;;;;;;;;;10483897;28;20076;-73
2022/09/06 21:05:44;;;;;;;8.02;3.15;;;;;;;;;;10484070;28;20082;-73
2022/09/06 21:10:47;;;;;;;5.57;2.20;;;;;;;;;;10482740;28;20052;-75
2022/09/06 21:15:51;;;;;;;3.15;1.63;;;;;;;;;;10483581;28;20043;-72
2022/09/06 21:20:55;;;;;;;6.72;2.30;;;;;;;;;;10483102;28;20486;-74
2022/09/06 21:25:59;;;;;;;6.30;2.50;;;;;;;;;;10483588;28;20120;-74
2022/09/06 21:31:04;;;;;;;4.78;2.35;;;;;;;;;;10484249;28;20094;-74
2022/09/06 21:36:10;;;;;;;6.30;2.45;;;;;;;;;;10473813;28;20040;-74
2022/09/06 21:41:15;;;;;;;4.95;2.30;;;;;;;;;;10482875;28;20044;-74
2022/09/06 21:46:20;;;;;;;5.25;2.30;;;;;;;;;;10485078;28;20123;-74
2022/09/06 21:51:25;;;;;;;9.43;2.40;;;;;;;;;;10478845;28;20041;-74
2022/09/06 21:56:29;;;;;;;7.22;1.83;;;;;;;;;;10480482;28;20289;-74
2022/09/06 22:01:34;;;;;;;5.57;3.35;;;;;;;;;;10481369;28;20375;-74
2022/09/06 22:06:37;;;;;;;10.60;2.95;;;;;;;;;;10478552;28;20371;-74
2022/09/06 22:11:51;;;;;;;7.03;2.87;;;;;;;;;;10482204;28;20041;-75
2022/09/06 22:16:55;;;;;;;11.32;3.58;;;;;;;;;;10482414;28;20041;-74
2022/09/06 22:21:58;;;;;;;6.72;2.92;;;;;;;;;;10481436;28;20056;-74
2022/09/06 22:27:11;;;;;;;6.80;3.05;;;;;;;;;;10477400;28;20052;-74
2022/09/06 22:32:15;;;;;;;11.02;3.58;;;;;;;;;;10480277;28;20032;-74
2022/09/06 22:37:18;;;;;;;7.00;3.25;;;;;;;;;;10475643;28;20390;-74
2022/09/06 22:42:21;;;;;;;9.85;3.58;;;;;;;;;;10474104;28;20036;-72
2022/09/06 22:47:26;;;;;;;10.80;3.67;;;;;;;;;;10460156;28;20037;-73
2022/09/06 22:52:28;;;;;;;12.52;3.55;;;;;;;;;;10478517;28;20477;-73
2022/09/06 22:57:31;;;;;;;10.38;3.33;;;;;;;;;;10479141;28;20482;-73
2022/09/06 23:02:36;;;;;;;8.38;3.75;;;;;;;;;;10480395;28;20171;-73
2022/09/06 23:07:38;;;;;;;9.13;3.50;;;;;;;;;;10477504;28;20243;-74
2022/09/06 23:12:41;;;;;;;9.90;3.67;;;;;;;;;;10476327;28;20039;-73
2022/09/06 23:17:45;;;;;;;9.17;3.63;;;;;;;;;;10482606;28;20422;-74
2022/09/06 23:22:49;;;;;;;8.13;3.75;;;;;;;;;;10487794;28;20144;-73
2022/09/06 23:27:51;;;;;;;9.03;4.00;;;;;;;;;;10487009;28;20303;-73
2022/09/06 23:32:56;;;;;;;11.43;3.78;;;;;;;;;;10484093;28;20060;-73
2022/09/06 23:37:58;;;;;;;8.73;3.58;;;;;;;;;;10491234;28;20059;-72
2022/09/06 23:43:01;;;;;;;6.30;3.72;;;;;;;;;;10491561;28;20524;-74
2022/09/06 23:48:06;;;;;;;9.95;3.97;;;;;;;;;;10489880;28;20156;-75
2022/09/06 23:53:09;;;;;;;9.70;4.15;;;;;;;;;;10483611;28;20044;-73
2022/09/06 23:58:12;;;;;;;8.05;4.00;;;;;;;;;;10485554;28;20082;-73
